Detall de PIREP

Printer-friendly versionPDF version

[2015/04/28 18:34:00]
Flight IATA:CT0001
Pilot Number:016
Company ICAO:CAT
Aircraft Type:B738/F
PAX:130
Departing Airport: LEBL
Destination Airport: LEPA
Alternate Airport:LEBL
Online: VATSIM
Route:LARPA TOLSO
Flight Level:F190
No Slew and time accel
No pause
Crash detect
Detect pilot in Cockpit between each 30 and 45 minutes
18:34 Zero fuel Weight: 114804 Lbs, Fuel Weight: 11582 Lbs
18:34 VATSIM:LEBL 290100Z 31003KT 9999 FEW015 SCT056 13/10 Q1018 NOSIG
18:34 VATSIM:LEPA 290100Z 06003KT 9999 FEW030 08/07 Q1019 NOSIG
18:35 Parking Brakes off
18:44 Take-off
18:44 Take off Weight: 125514 Lbs
18:44 Wind: 313º @ 003 Knots Heading: 246º
18:44 POS N41º 17´ 11´´ E002º 05´ 11´´
18:44 Flaps:3 at 160 Knots
18:44 Gear Up: 165 Knots
18:45 Flaps:4 at 165 Knots
18:45 Flaps:3 at 169 Knots
18:45 Flaps:2 at 187 Knots
18:46 Flaps:1 at 236 Knots
18:46 Flaps:0 at 247 Knots
18:51TOC
18:51 Fuel Weight: 8902 Lb
18:55 TOD
18:55 Fuel Weight: 8597 Lb
18:59 Wind:030º@002 Knots Heading: 119º Ground Speed: 300 Knots Altitude 13484 ft
19:03 Flaps:1 at 242 Knots
19:04 Flaps:2 at 230 Knots
19:09 Flaps:3 at 195 Knots
19:10 Flaps:4 at 187 Knots
19:10 Gear Down: 177 Knots
19:10 Flaps:5 at 147 Knots
19:11 Flaps:6 at 131 Knots
19:11 Flaps:7 at 131 Knots
19:11 Flaps:8 at 132 Knots
19:13 TouchDown:Rate -269 ft/min Speed: 129 Knots
19:13 VATSIM:LEPA 290200Z 00000KT 9999 FEW030 07/06 Q1019 NOSIG
19:13 Land
19:13 Wind:058º@000 Knots
19:13 Heading: 237º
19:13 Flight Duration: 00:29
19:13 Landing Weight: 122436 Lbs
19:13 POS N39º 32´ 58´´ E002º 44´ 56´´
19:16 Parking brakes on
19:16 Block to Block Duration: 00:41
19:16 Final Fuel: 7500 Lbls
19:16 Spent Fuel: 4082 Lbls
19:16 Flight Length: 131 NM
19:16 TOD Land Length: 71 NM

Exportar CSV

Powered by Drupal - Modified by Danger4k